sensor_id;sensor_type;location;lat;lon;timestamp;temperature;humidity
22364;DHT22;11349;53.412;-1.328;2022-12-29T00:02:25;16.00;99.90
22364;DHT22;11349;53.412;-1.328;2022-12-29T00:04:51;16.00;99.90
22364;DHT22;11349;53.412;-1.328;2022-12-29T00:07:18;16.00;99.90
22364;DHT22;11349;53.412;-1.328;2022-12-29T00:09:44;16.40;99.90
22364;DHT22;11349;53.412;-1.328;2022-12-29T00:12:09;15.80;99.90
22364;DHT22;11349;53.412;-1.328;2022-12-29T00:14:35;16.30;99.90
22364;DHT22;11349;53.412;-1.328;2022-12-29T00:17:19;15.90;99.90
22364;DHT22;11349;53.412;-1.328;2022-12-29T00:19:45;16.00;99.90
22364;DHT22;11349;53.412;-1.328;2022-12-29T00:22:31;15.30;99.90
22364;DHT22;11349;53.412;-1.328;2022-12-29T00:25:15;15.50;99.90
22364;DHT22;11349;53.412;-1.328;2022-12-29T00:27:59;15.30;99.90
22364;DHT22;11349;53.412;-1.328;2022-12-29T00:30:43;15.50;99.90
22364;DHT22;11349;53.412;-1.328;2022-12-29T00:33:30;16.10;99.90
22364;DHT22;11349;53.412;-1.328;2022-12-29T00:38:48;15.40;99.90
22364;DHT22;11349;53.412;-1.328;2022-12-29T00:41:33;15.90;99.90
22364;DHT22;11349;53.412;-1.328;2022-12-29T00:44:17;15.30;99.90
22364;DHT22;11349;53.412;-1.328;2022-12-29T00:46:44;15.30;99.90
22364;DHT22;11349;53.412;-1.328;2022-12-29T00:49:11;15.80;99.90
22364;DHT22;11349;53.412;-1.328;2022-12-29T00:52:01;15.70;99.90
22364;DHT22;11349;53.412;-1.328;2022-12-29T00:54:29;15.80;99.90
22364;DHT22;11349;53.412;-1.328;2022-12-29T00:56:54;15.40;99.90
22364;DHT22;11349;53.412;-1.328;2022-12-29T00:59:21;15.10;99.90
22364;DHT22;11349;53.412;-1.328;2022-12-29T01:01:47;15.20;99.90
22364;DHT22;11349;53.412;-1.328;2022-12-29T01:04:13;14.90;99.90
22364;DHT22;11349;53.412;-1.328;2022-12-29T01:06:40;15.10;99.90
22364;DHT22;11349;53.412;-1.328;2022-12-29T01:09:06;15.40;99.90
22364;DHT22;11349;53.412;-1.328;2022-12-29T01:11:51;15.30;99.90
22364;DHT22;11349;53.412;-1.328;2022-12-29T01:14:18;15.20;99.90
22364;DHT22;11349;53.412;-1.328;2022-12-29T01:16:44;15.30;99.90
22364;DHT22;11349;53.412;-1.328;2022-12-29T01:19:11;15.70;99.90
22364;DHT22;11349;53.412;-1.328;2022-12-29T01:21:37;15.10;99.90
22364;DHT22;11349;53.412;-1.328;2022-12-29T01:24:02;14.60;99.90
22364;DHT22;11349;53.412;-1.328;2022-12-29T01:26:28;15.20;99.90
22364;DHT22;11349;53.412;-1.328;2022-12-29T01:28:54;14.50;99.90
22364;DHT22;11349;53.412;-1.328;2022-12-29T01:31:20;15.30;99.90
22364;DHT22;11349;53.412;-1.328;2022-12-29T01:33:45;15.60;99.90
22364;DHT22;11349;53.412;-1.328;2022-12-29T01:36:13;15.50;99.90
22364;DHT22;11349;53.412;-1.328;2022-12-29T01:38:40;15.50;99.90
22364;DHT22;11349;53.412;-1.328;2022-12-29T01:41:08;14.80;99.90
22364;DHT22;11349;53.412;-1.328;2022-12-29T01:43:46;15.10;99.90
22364;DHT22;11349;53.412;-1.328;2022-12-29T01:46:23;14.70;99.90
22364;DHT22;11349;53.412;-1.328;2022-12-29T01:49:02;15.20;99.90
22364;DHT22;11349;53.412;-1.328;2022-12-29T01:51:31;14.60;99.90
22364;DHT22;11349;53.412;-1.328;2022-12-29T01:54:02;15.20;99.90
22364;DHT22;11349;53.412;-1.328;2022-12-29T01:56:30;15.30;99.90
22364;DHT22;11349;53.412;-1.328;2022-12-29T01:59:01;15.00;99.90
22364;DHT22;11349;53.412;-1.328;2022-12-29T02:01:27;14.90;99.90
22364;DHT22;11349;53.412;-1.328;2022-12-29T02:03:53;14.70;99.90
22364;DHT22;11349;53.412;-1.328;2022-12-29T02:06:22;14.30;99.90
22364;DHT22;11349;53.412;-1.328;2022-12-29T02:08:50;14.50;99.90
22364;DHT22;11349;53.412;-1.328;2022-12-29T02:11:17;14.10;99.90
22364;DHT22;11349;53.412;-1.328;2022-12-29T02:13:43;14.10;99.90
22364;DHT22;11349;53.412;-1.328;2022-12-29T02:16:25;13.80;99.90
22364;DHT22;11349;53.412;-1.328;2022-12-29T02:33:21;10.90;99.90
22364;DHT22;11349;53.412;-1.328;2022-12-29T02:43:41;9.90;99.90
22364;DHT22;11349;53.412;-1.328;2022-12-29T02:46:34;10.30;99.90
22364;DHT22;11349;53.412;-1.328;2022-12-29T02:51:57;10.20;99.90
22364;DHT22;11349;53.412;-1.328;2022-12-29T02:54:23;10.10;99.90
22364;DHT22;11349;53.412;-1.328;2022-12-29T02:59:51;11.00;99.90
22364;DHT22;11349;53.412;-1.328;2022-12-29T03:10:23;11.80;99.90
22364;DHT22;11349;53.412;-1.328;2022-12-29T03:12:56;10.90;99.90
22364;DHT22;11349;53.412;-1.328;2022-12-29T03:16:21;10.40;99.90
22364;DHT22;11349;53.412;-1.328;2022-12-29T03:18:56;10.70;99.90
22364;DHT22;11349;53.412;-1.328;2022-12-29T03:21:42;10.40;99.90
22364;DHT22;11349;53.412;-1.328;2022-12-29T03:24:31;11.10;99.90
22364;DHT22;11349;53.412;-1.328;2022-12-29T03:27:02;10.40;99.90
22364;DHT22;11349;53.412;-1.328;2022-12-29T03:29:31;10.50;99.90
22364;DHT22;11349;53.412;-1.328;2022-12-29T03:31:59;10.60;99.90
22364;DHT22;11349;53.412;-1.328;2022-12-29T03:34:28;10.30;99.90
22364;DHT22;11349;53.412;-1.328;2022-12-29T03:37:09;10.10;99.90
22364;DHT22;11349;53.412;-1.328;2022-12-29T03:39:37;10.50;99.90
22364;DHT22;11349;53.412;-1.328;2022-12-29T03:42:06;10.10;99.90
22364;DHT22;11349;53.412;-1.328;2022-12-29T03:44:36;10.00;99.90
22364;DHT22;11349;53.412;-1.328;2022-12-29T03:47:02;10.00;99.90
22364;DHT22;11349;53.412;-1.328;2022-12-29T03:49:28;9.60;99.90
22364;DHT22;11349;53.412;-1.328;2022-12-29T03:51:54;9.40;99.90
22364;DHT22;11349;53.412;-1.328;2022-12-29T03:54:19;9.30;99.90
22364;DHT22;11349;53.412;-1.328;2022-12-29T03:56:45;9.30;99.90
22364;DHT22;11349;53.412;-1.328;2022-12-29T03:59:11;9.50;99.90
22364;DHT22;11349;53.412;-1.328;2022-12-29T04:01:36;9.60;99.90
22364;DHT22;11349;53.412;-1.328;2022-12-29T04:04:02;9.30;99.90
22364;DHT22;11349;53.412;-1.328;2022-12-29T04:06:28;9.00;99.90
22364;DHT22;11349;53.412;-1.328;2022-12-29T04:08:53;9.10;99.90
22364;DHT22;11349;53.412;-1.328;2022-12-29T04:11:20;9.00;99.90
22364;DHT22;11349;53.412;-1.328;2022-12-29T04:13:46;9.80;99.90
22364;DHT22;11349;53.412;-1.328;2022-12-29T04:16:11;9.40;99.90
22364;DHT22;11349;53.412;-1.328;2022-12-29T04:18:37;9.30;99.90
22364;DHT22;11349;53.412;-1.328;2022-12-29T04:21:03;9.10;99.90
22364;DHT22;11349;53.412;-1.328;2022-12-29T04:23:31;9.50;99.90
22364;DHT22;11349;53.412;-1.328;2022-12-29T04:25:57;9.10;99.90
22364;DHT22;11349;53.412;-1.328;2022-12-29T04:28:23;9.10;99.90
22364;DHT22;11349;53.412;-1.328;2022-12-29T04:30:49;9.40;99.90
22364;DHT22;11349;53.412;-1.328;2022-12-29T04:33:15;9.40;99.90
22364;DHT22;11349;53.412;-1.328;2022-12-29T04:35:42;9.40;99.90
22364;DHT22;11349;53.412;-1.328;2022-12-29T04:38:08;9.10;99.90
22364;DHT22;11349;53.412;-1.328;2022-12-29T04:40:34;9.30;99.90
22364;DHT22;11349;53.412;-1.328;2022-12-29T04:43:00;9.50;99.90
22364;DHT22;11349;53.412;-1.328;2022-12-29T04:45:26;9.50;99.90
22364;DHT22;11349;53.412;-1.328;2022-12-29T04:47:52;9.80;99.90
22364;DHT22;11349;53.412;-1.328;2022-12-29T04:50:17;10.40;99.90
22364;DHT22;11349;53.412;-1.328;2022-12-29T04:52:43;10.50;99.90
22364;DHT22;11349;53.412;-1.328;2022-12-29T04:55:09;10.10;99.90
22364;DHT22;11349;53.412;-1.328;2022-12-29T04:57:35;9.70;99.90
22364;DHT22;11349;53.412;-1.328;2022-12-29T05:00:00;9.90;99.90
22364;DHT22;11349;53.412;-1.328;2022-12-29T05:02:27;9.70;99.90
22364;DHT22;11349;53.412;-1.328;2022-12-29T05:04:52;9.80;99.90
22364;DHT22;11349;53.412;-1.328;2022-12-29T05:07:18;9.50;99.90
22364;DHT22;11349;53.412;-1.328;2022-12-29T05:09:44;9.70;99.90
22364;DHT22;11349;53.412;-1.328;2022-12-29T05:12:09;9.50;99.90
22364;DHT22;11349;53.412;-1.328;2022-12-29T05:14:35;9.70;99.90
22364;DHT22;11349;53.412;-1.328;2022-12-29T05:17:01;9.50;99.90
22364;DHT22;11349;53.412;-1.328;2022-12-29T05:19:27;10.00;99.90
22364;DHT22;11349;53.412;-1.328;2022-12-29T05:21:52;10.00;99.90
22364;DHT22;11349;53.412;-1.328;2022-12-29T05:24:19;10.00;99.90
22364;DHT22;11349;53.412;-1.328;2022-12-29T05:26:45;9.70;99.90
22364;DHT22;11349;53.412;-1.328;2022-12-29T05:29:11;9.50;99.90
22364;DHT22;11349;53.412;-1.328;2022-12-29T05:31:37;9.80;99.90
22364;DHT22;11349;53.412;-1.328;2022-12-29T05:34:03;9.80;99.90
22364;DHT22;11349;53.412;-1.328;2022-12-29T05:36:29;9.80;99.90
22364;DHT22;11349;53.412;-1.328;2022-12-29T05:38:54;9.80;99.90
22364;DHT22;11349;53.412;-1.328;2022-12-29T05:41:20;10.20;99.90
22364;DHT22;11349;53.412;-1.328;2022-12-29T05:43:46;9.80;99.90
22364;DHT22;11349;53.412;-1.328;2022-12-29T05:46:11;10.00;99.90
22364;DHT22;11349;53.412;-1.328;2022-12-29T05:48:37;9.60;99.90
22364;DHT22;11349;53.412;-1.328;2022-12-29T05:51:03;9.60;99.90
22364;DHT22;11349;53.412;-1.328;2022-12-29T05:53:29;9.60;99.90
22364;DHT22;11349;53.412;-1.328;2022-12-29T05:55:55;9.80;99.90
22364;DHT22;11349;53.412;-1.328;2022-12-29T05:58:20;9.90;99.90
22364;DHT22;11349;53.412;-1.328;2022-12-29T06:00:46;9.80;99.90
22364;DHT22;11349;53.412;-1.328;2022-12-29T06:03:12;9.80;99.90
22364;DHT22;11349;53.412;-1.328;2022-12-29T06:05:38;10.20;99.90
22364;DHT22;11349;53.412;-1.328;2022-12-29T06:08:04;9.90;99.90
22364;DHT22;11349;53.412;-1.328;2022-12-29T06:10:29;9.40;99.90
22364;DHT22;11349;53.412;-1.328;2022-12-29T06:12:55;9.10;99.90
22364;DHT22;11349;53.412;-1.328;2022-12-29T06:15:21;9.80;99.90
22364;DHT22;11349;53.412;-1.328;2022-12-29T06:17:46;9.80;99.90
22364;DHT22;11349;53.412;-1.328;2022-12-29T06:20:12;9.50;99.90
22364;DHT22;11349;53.412;-1.328;2022-12-29T06:22:38;9.60;99.90
22364;DHT22;11349;53.412;-1.328;2022-12-29T06:25:04;9.80;99.90
22364;DHT22;11349;53.412;-1.328;2022-12-29T06:27:31;10.10;99.90
22364;DHT22;11349;53.412;-1.328;2022-12-29T06:29:56;10.10;99.90
22364;DHT22;11349;53.412;-1.328;2022-12-29T06:32:22;9.50;99.90
22364;DHT22;11349;53.412;-1.328;2022-12-29T06:34:48;9.70;99.90
22364;DHT22;11349;53.412;-1.328;2022-12-29T06:37:14;9.50;99.90
22364;DHT22;11349;53.412;-1.328;2022-12-29T06:39:40;10.00;99.90
22364;DHT22;11349;53.412;-1.328;2022-12-29T06:42:06;9.80;99.90
22364;DHT22;11349;53.412;-1.328;2022-12-29T06:44:31;10.80;99.90
22364;DHT22;11349;53.412;-1.328;2022-12-29T06:46:57;10.40;99.90
22364;DHT22;11349;53.412;-1.328;2022-12-29T06:49:23;10.30;99.90
22364;DHT22;11349;53.412;-1.328;2022-12-29T06:51:49;10.30;99.90
22364;DHT22;11349;53.412;-1.328;2022-12-29T06:54:15;10.00;99.90
22364;DHT22;11349;53.412;-1.328;2022-12-29T06:56:40;10.30;99.90
22364;DHT22;11349;53.412;-1.328;2022-12-29T06:59:06;10.30;99.90
22364;DHT22;11349;53.412;-1.328;2022-12-29T07:01:32;11.10;99.90
22364;DHT22;11349;53.412;-1.328;2022-12-29T07:03:58;10.90;99.90
22364;DHT22;11349;53.412;-1.328;2022-12-29T07:06:24;11.00;99.90
22364;DHT22;11349;53.412;-1.328;2022-12-29T07:08:49;10.60;99.90
22364;DHT22;11349;53.412;-1.328;2022-12-29T07:11:15;10.20;99.90
22364;DHT22;11349;53.412;-1.328;2022-12-29T07:13:41;10.40;99.90
22364;DHT22;11349;53.412;-1.328;2022-12-29T07:16:08;11.00;99.90
22364;DHT22;11349;53.412;-1.328;2022-12-29T07:18:34;10.80;99.90
22364;DHT22;11349;53.412;-1.328;2022-12-29T07:21:00;11.00;99.90
22364;DHT22;11349;53.412;-1.328;2022-12-29T07:23:26;11.60;99.90
22364;DHT22;11349;53.412;-1.328;2022-12-29T07:26:12;12.10;99.90
22364;DHT22;11349;53.412;-1.328;2022-12-29T07:28:38;12.20;99.90
22364;DHT22;11349;53.412;-1.328;2022-12-29T07:31:05;11.80;99.90
22364;DHT22;11349;53.412;-1.328;2022-12-29T07:33:32;11.80;99.90
22364;DHT22;11349;53.412;-1.328;2022-12-29T07:35:58;11.30;99.90
22364;DHT22;11349;53.412;-1.328;2022-12-29T07:38:24;11.40;99.90
22364;DHT22;11349;53.412;-1.328;2022-12-29T07:40:50;11.50;99.90
22364;DHT22;11349;53.412;-1.328;2022-12-29T07:43:16;11.70;99.90
22364;DHT22;11349;53.412;-1.328;2022-12-29T07:45:41;11.20;99.90
22364;DHT22;11349;53.412;-1.328;2022-12-29T07:48:08;10.90;99.90
22364;DHT22;11349;53.412;-1.328;2022-12-29T07:50:37;10.70;99.90
22364;DHT22;11349;53.412;-1.328;2022-12-29T07:53:03;11.20;99.90
22364;DHT22;11349;53.412;-1.328;2022-12-29T07:55:29;11.40;99.90
22364;DHT22;11349;53.412;-1.328;2022-12-29T07:57:55;10.50;99.90
22364;DHT22;11349;53.412;-1.328;2022-12-29T08:00:21;10.40;99.90
22364;DHT22;11349;53.412;-1.328;2022-12-29T08:02:47;10.50;99.90
22364;DHT22;11349;53.412;-1.328;2022-12-29T08:05:13;10.20;99.90
22364;DHT22;11349;53.412;-1.328;2022-12-29T08:07:39;10.60;99.90
22364;DHT22;11349;53.412;-1.328;2022-12-29T08:10:05;10.40;99.90
22364;DHT22;11349;53.412;-1.328;2022-12-29T08:12:31;10.50;99.90
22364;DHT22;11349;53.412;-1.328;2022-12-29T08:14:56;10.30;99.90
22364;DHT22;11349;53.412;-1.328;2022-12-29T08:17:22;11.00;99.90
22364;DHT22;11349;53.412;-1.328;2022-12-29T08:19:48;10.70;99.90
22364;DHT22;11349;53.412;-1.328;2022-12-29T08:22:15;10.90;99.90
22364;DHT22;11349;53.412;-1.328;2022-12-29T08:24:40;11.20;99.90
22364;DHT22;11349;53.412;-1.328;2022-12-29T08:27:06;10.80;99.90
22364;DHT22;11349;53.412;-1.328;2022-12-29T08:29:32;10.00;99.90
22364;DHT22;11349;53.412;-1.328;2022-12-29T08:31:57;10.00;99.90
22364;DHT22;11349;53.412;-1.328;2022-12-29T08:34:23;10.20;99.90
22364;DHT22;11349;53.412;-1.328;2022-12-29T08:36:49;10.40;99.90
22364;DHT22;11349;53.412;-1.328;2022-12-29T08:39:15;10.50;99.90
22364;DHT22;11349;53.412;-1.328;2022-12-29T08:41:41;10.80;99.90
22364;DHT22;11349;53.412;-1.328;2022-12-29T08:44:06;11.20;99.90
22364;DHT22;11349;53.412;-1.328;2022-12-29T08:46:32;10.90;99.90
22364;DHT22;11349;53.412;-1.328;2022-12-29T08:48:58;11.00;99.90
22364;DHT22;11349;53.412;-1.328;2022-12-29T08:51:24;10.80;99.90
22364;DHT22;11349;53.412;-1.328;2022-12-29T08:53:49;10.10;99.90
22364;DHT22;11349;53.412;-1.328;2022-12-29T08:56:16;10.00;99.90
22364;DHT22;11349;53.412;-1.328;2022-12-29T08:58:41;9.90;99.90
22364;DHT22;11349;53.412;-1.328;2022-12-29T09:01:08;9.80;99.90
22364;DHT22;11349;53.412;-1.328;2022-12-29T09:03:34;9.60;99.90
22364;DHT22;11349;53.412;-1.328;2022-12-29T09:06:00;9.50;99.90
22364;DHT22;11349;53.412;-1.328;2022-12-29T09:08:26;9.80;99.90
22364;DHT22;11349;53.412;-1.328;2022-12-29T09:10:52;9.50;99.90
22364;DHT22;11349;53.412;-1.328;2022-12-29T09:13:18;9.50;99.90
22364;DHT22;11349;53.412;-1.328;2022-12-29T09:15:44;9.80;99.90
22364;DHT22;11349;53.412;-1.328;2022-12-29T09:18:11;10.00;99.90
22364;DHT22;11349;53.412;-1.328;2022-12-29T09:20:37;10.20;99.90
22364;DHT22;11349;53.412;-1.328;2022-12-29T09:23:03;11.10;99.90
22364;DHT22;11349;53.412;-1.328;2022-12-29T09:25:29;10.20;99.90
22364;DHT22;11349;53.412;-1.328;2022-12-29T09:27:55;10.10;99.90
22364;DHT22;11349;53.412;-1.328;2022-12-29T09:30:22;10.10;99.90
22364;DHT22;11349;53.412;-1.328;2022-12-29T09:32:48;10.00;99.90
22364;DHT22;11349;53.412;-1.328;2022-12-29T09:35:15;10.40;99.90
22364;DHT22;11349;53.412;-1.328;2022-12-29T09:37:42;10.20;99.90
22364;DHT22;11349;53.412;-1.328;2022-12-29T09:40:36;10.50;99.90
22364;DHT22;11349;53.412;-1.328;2022-12-29T09:45:33;10.20;99.90
22364;DHT22;11349;53.412;-1.328;2022-12-29T09:48:00;10.60;99.90
22364;DHT22;11349;53.412;-1.328;2022-12-29T09:50:30;11.30;99.90
22364;DHT22;11349;53.412;-1.328;2022-12-29T09:53:14;10.60;99.90
22364;DHT22;11349;53.412;-1.328;2022-12-29T09:55:48;10.60;99.90
22364;DHT22;11349;53.412;-1.328;2022-12-29T09:58:34;10.70;99.90
22364;DHT22;11349;53.412;-1.328;2022-12-29T10:01:05;10.40;99.90
22364;DHT22;11349;53.412;-1.328;2022-12-29T10:03:49;10.80;99.90
22364;DHT22;11349;53.412;-1.328;2022-12-29T10:25:59;10.60;99.90
22364;DHT22;11349;53.412;-1.328;2022-12-29T10:30:57;10.90;99.90
22364;DHT22;11349;53.412;-1.328;2022-12-29T10:33:31;10.00;99.90
22364;DHT22;11349;53.412;-1.328;2022-12-29T10:35:58;11.10;99.90
22364;DHT22;11349;53.412;-1.328;2022-12-29T10:38:35;11.60;99.90
22364;DHT22;11349;53.412;-1.328;2022-12-29T10:43:46;11.80;99.90
22364;DHT22;11349;53.412;-1.328;2022-12-29T10:46:23;12.30;99.90
22364;DHT22;11349;53.412;-1.328;2022-12-29T10:48:50;11.80;99.90
22364;DHT22;11349;53.412;-1.328;2022-12-29T10:51:38;11.90;99.90
22364;DHT22;11349;53.412;-1.328;2022-12-29T10:54:18;12.40;99.90
22364;DHT22;11349;53.412;-1.328;2022-12-29T10:56:56;12.50;99.90
22364;DHT22;11349;53.412;-1.328;2022-12-29T10:59:29;12.80;99.90
22364;DHT22;11349;53.412;-1.328;2022-12-29T11:05:03;12.40;99.90
22364;DHT22;11349;53.412;-1.328;2022-12-29T11:07:32;13.00;99.90
22364;DHT22;11349;53.412;-1.328;2022-12-29T11:13:04;11.70;99.90
22364;DHT22;11349;53.412;-1.328;2022-12-29T11:15:47;11.80;99.90
22364;DHT22;11349;53.412;-1.328;2022-12-29T11:18:34;11.80;99.90
22364;DHT22;11349;53.412;-1.328;2022-12-29T11:21:05;11.70;99.90
22364;DHT22;11349;53.412;-1.328;2022-12-29T11:23:41;13.00;99.90
22364;DHT22;11349;53.412;-1.328;2022-12-29T11:28:40;12.10;99.90
22364;DHT22;11349;53.412;-1.328;2022-12-29T11:31:07;11.90;99.90
22364;DHT22;11349;53.412;-1.328;2022-12-29T11:33:36;11.80;99.90
22364;DHT22;11349;53.412;-1.328;2022-12-29T11:38:41;11.60;99.90
22364;DHT22;11349;53.412;-1.328;2022-12-29T11:41:13;11.20;99.90
22364;DHT22;11349;53.412;-1.328;2022-12-29T11:43:43;11.30;99.90
22364;DHT22;11349;53.412;-1.328;2022-12-29T11:46:36;11.30;99.90
22364;DHT22;11349;53.412;-1.328;2022-12-29T11:49:03;12.00;99.90
22364;DHT22;11349;53.412;-1.328;2022-12-29T11:51:43;11.90;99.90
22364;DHT22;11349;53.412;-1.328;2022-12-29T11:54:19;11.30;99.90
22364;DHT22;11349;53.412;-1.328;2022-12-29T11:56:47;12.20;99.90
22364;DHT22;11349;53.412;-1.328;2022-12-29T12:02:02;11.50;99.90
22364;DHT22;11349;53.412;-1.328;2022-12-29T12:04:36;11.40;99.90
22364;DHT22;11349;53.412;-1.328;2022-12-29T12:07:17;12.00;99.90
22364;DHT22;11349;53.412;-1.328;2022-12-29T12:09:50;11.50;99.90
22364;DHT22;11349;53.412;-1.328;2022-12-29T12:12:29;11.60;99.90
22364;DHT22;11349;53.412;-1.328;2022-12-29T12:14:58;12.10;99.90
22364;DHT22;11349;53.412;-1.328;2022-12-29T12:17:40;12.20;99.90
22364;DHT22;11349;53.412;-1.328;2022-12-29T12:20:22;12.20;99.90
22364;DHT22;11349;53.412;-1.328;2022-12-29T12:23:16;12.90;99.90
22364;DHT22;11349;53.412;-1.328;2022-12-29T12:26:04;12.70;99.90
22364;DHT22;11349;53.412;-1.328;2022-12-29T12:28:52;12.80;99.90
22364;DHT22;11349;53.412;-1.328;2022-12-29T12:34:00;12.60;99.90
22364;DHT22;11349;53.412;-1.328;2022-12-29T12:36:44;12.40;99.90
22364;DHT22;11349;53.412;-1.328;2022-12-29T12:39:41;12.70;99.90
22364;DHT22;11349;53.412;-1.328;2022-12-29T12:45:36;12.40;99.90
22364;DHT22;11349;53.412;-1.328;2022-12-29T12:48:27;12.00;99.90
22364;DHT22;11349;53.412;-1.328;2022-12-29T12:53:58;12.80;99.90
22364;DHT22;11349;53.412;-1.328;2022-12-29T12:59:57;12.50;99.90
22364;DHT22;11349;53.412;-1.328;2022-12-29T13:02:46;11.80;99.90
22364;DHT22;11349;53.412;-1.328;2022-12-29T13:10:42;11.40;99.90
22364;DHT22;11349;53.412;-1.328;2022-12-29T13:21:52;11.70;99.90
22364;DHT22;11349;53.412;-1.328;2022-12-29T13:26:35;12.40;99.90
22364;DHT22;11349;53.412;-1.328;2022-12-29T13:29:23;11.90;99.90
22364;DHT22;11349;53.412;-1.328;2022-12-29T13:37:20;11.60;99.90
22364;DHT22;11349;53.412;-1.328;2022-12-29T13:40:12;12.00;99.90
22364;DHT22;11349;53.412;-1.328;2022-12-29T13:42:39;12.40;99.90
22364;DHT22;11349;53.412;-1.328;2022-12-29T13:45:10;12.20;99.90
22364;DHT22;11349;53.412;-1.328;2022-12-29T13:47:44;11.30;99.90
22364;DHT22;11349;53.412;-1.328;2022-12-29T13:50:19;11.60;99.90
22364;DHT22;11349;53.412;-1.328;2022-12-29T13:52:59;11.30;99.90
22364;DHT22;11349;53.412;-1.328;2022-12-29T14:01:07;11.40;99.90
22364;DHT22;11349;53.412;-1.328;2022-12-29T14:03:55;11.20;99.90
22364;DHT22;11349;53.412;-1.328;2022-12-29T14:06:24;11.60;99.90
22364;DHT22;11349;53.412;-1.328;2022-12-29T14:11:58;11.40;99.90
22364;DHT22;11349;53.412;-1.328;2022-12-29T14:14:27;11.60;99.90
22364;DHT22;11349;53.412;-1.328;2022-12-29T14:16:54;11.40;99.90
22364;DHT22;11349;53.412;-1.328;2022-12-29T14:19:26;11.70;99.90
22364;DHT22;11349;53.412;-1.328;2022-12-29T14:22:01;11.60;99.90
22364;DHT22;11349;53.412;-1.328;2022-12-29T14:34:51;11.30;99.90
22364;DHT22;11349;53.412;-1.328;2022-12-29T14:40:22;10.90;99.90
22364;DHT22;11349;53.412;-1.328;2022-12-29T14:42:58;11.20;99.90
22364;DHT22;11349;53.412;-1.328;2022-12-29T14:45:29;12.60;99.90
22364;DHT22;11349;53.412;-1.328;2022-12-29T14:47:55;11.50;99.90
22364;DHT22;11349;53.412;-1.328;2022-12-29T14:50:35;11.30;99.90
22364;DHT22;11349;53.412;-1.328;2022-12-29T14:53:05;11.40;99.90
22364;DHT22;11349;53.412;-1.328;2022-12-29T14:55:43;11.50;99.90
22364;DHT22;11349;53.412;-1.328;2022-12-29T14:58:35;11.50;99.90
22364;DHT22;11349;53.412;-1.328;2022-12-29T15:03:53;11.70;99.90
22364;DHT22;11349;53.412;-1.328;2022-12-29T15:06:29;11.80;99.90
22364;DHT22;11349;53.412;-1.328;2022-12-29T15:09:06;11.50;99.90
22364;DHT22;11349;53.412;-1.328;2022-12-29T15:14:00;11.00;99.90
22364;DHT22;11349;53.412;-1.328;2022-12-29T15:16:31;11.20;99.90
22364;DHT22;11349;53.412;-1.328;2022-12-29T15:18:57;11.10;99.90
22364;DHT22;11349;53.412;-1.328;2022-12-29T15:21:32;10.90;99.90
22364;DHT22;11349;53.412;-1.328;2022-12-29T15:23:59;10.80;99.90
22364;DHT22;11349;53.412;-1.328;2022-12-29T15:26:38;10.60;99.90
22364;DHT22;11349;53.412;-1.328;2022-12-29T15:29:04;10.40;99.90
22364;DHT22;11349;53.412;-1.328;2022-12-29T15:31:30;10.90;99.90
22364;DHT22;11349;53.412;-1.328;2022-12-29T15:34:09;11.40;99.90
22364;DHT22;11349;53.412;-1.328;2022-12-29T15:36:39;10.60;99.90
22364;DHT22;11349;53.412;-1.328;2022-12-29T15:39:28;10.70;99.90
22364;DHT22;11349;53.412;-1.328;2022-12-29T15:42:03;10.20;99.90
22364;DHT22;11349;53.412;-1.328;2022-12-29T15:44:40;11.40;99.90
22364;DHT22;11349;53.412;-1.328;2022-12-29T15:49:52;11.00;99.90
22364;DHT22;11349;53.412;-1.328;2022-12-29T15:52:22;10.80;99.90
22364;DHT22;11349;53.412;-1.328;2022-12-29T15:54:50;10.40;99.90
22364;DHT22;11349;53.412;-1.328;2022-12-29T15:57:25;11.20;99.90
22364;DHT22;11349;53.412;-1.328;2022-12-29T15:59:51;11.30;99.90
22364;DHT22;11349;53.412;-1.328;2022-12-29T16:02:18;11.20;99.90
22364;DHT22;11349;53.412;-1.328;2022-12-29T16:04:44;11.10;99.90
22364;DHT22;11349;53.412;-1.328;2022-12-29T16:07:28;10.30;99.90
22364;DHT22;11349;53.412;-1.328;2022-12-29T16:09:59;10.40;99.90
22364;DHT22;11349;53.412;-1.328;2022-12-29T16:12:34;10.00;99.90
22364;DHT22;11349;53.412;-1.328;2022-12-29T16:15:06;10.00;99.90
22364;DHT22;11349;53.412;-1.328;2022-12-29T16:17:40;9.90;99.90
22364;DHT22;11349;53.412;-1.328;2022-12-29T16:20:40;10.60;99.90
22364;DHT22;11349;53.412;-1.328;2022-12-29T16:23:20;10.50;99.90
22364;DHT22;11349;53.412;-1.328;2022-12-29T16:25:48;10.10;99.90
22364;DHT22;11349;53.412;-1.328;2022-12-29T16:28:18;9.90;99.90
22364;DHT22;11349;53.412;-1.328;2022-12-29T16:30:45;9.70;99.90
22364;DHT22;11349;53.412;-1.328;2022-12-29T16:33:38;10.30;99.90
22364;DHT22;11349;53.412;-1.328;2022-12-29T16:36:22;10.50;99.90
22364;DHT22;11349;53.412;-1.328;2022-12-29T16:38:48;10.00;99.90
22364;DHT22;11349;53.412;-1.328;2022-12-29T16:41:29;10.70;99.90
22364;DHT22;11349;53.412;-1.328;2022-12-29T16:44:17;10.00;99.90
22364;DHT22;11349;53.412;-1.328;2022-12-29T16:49:38;10.60;99.90
22364;DHT22;11349;53.412;-1.328;2022-12-29T16:52:19;10.80;99.90
22364;DHT22;11349;53.412;-1.328;2022-12-29T16:54:57;10.20;99.90
22364;DHT22;11349;53.412;-1.328;2022-12-29T16:57:28;10.80;99.90
22364;DHT22;11349;53.412;-1.328;2022-12-29T16:59:58;9.90;99.90
22364;DHT22;11349;53.412;-1.328;2022-12-29T17:02:27;10.10;99.90
22364;DHT22;11349;53.412;-1.328;2022-12-29T17:04:53;10.20;99.90
22364;DHT22;11349;53.412;-1.328;2022-12-29T17:07:20;11.50;99.90
22364;DHT22;11349;53.412;-1.328;2022-12-29T17:09:46;10.40;99.90
22364;DHT22;11349;53.412;-1.328;2022-12-29T17:12:17;10.20;99.90
22364;DHT22;11349;53.412;-1.328;2022-12-29T17:17:41;10.40;99.90
22364;DHT22;11349;53.412;-1.328;2022-12-29T17:20:18;10.20;99.90
22364;DHT22;11349;53.412;-1.328;2022-12-29T17:22:44;10.40;99.90
22364;DHT22;11349;53.412;-1.328;2022-12-29T17:25:14;11.10;99.90
22364;DHT22;11349;53.412;-1.328;2022-12-29T17:28:31;10.10;99.90
22364;DHT22;11349;53.412;-1.328;2022-12-29T17:30:33;11.20;99.90
22364;DHT22;11349;53.412;-1.328;2022-12-29T17:33:02;11.20;99.90
22364;DHT22;11349;53.412;-1.328;2022-12-29T17:35:28;11.10;99.90
22364;DHT22;11349;53.412;-1.328;2022-12-29T17:37:54;11.00;99.90
22364;DHT22;11349;53.412;-1.328;2022-12-29T17:40:23;10.90;99.90
22364;DHT22;11349;53.412;-1.328;2022-12-29T17:42:52;10.90;99.90
22364;DHT22;11349;53.412;-1.328;2022-12-29T17:45:29;10.90;99.90
22364;DHT22;11349;53.412;-1.328;2022-12-29T17:47:56;11.10;99.90
22364;DHT22;11349;53.412;-1.328;2022-12-29T17:50:25;10.90;99.90
22364;DHT22;11349;53.412;-1.328;2022-12-29T17:52:53;10.30;99.90
22364;DHT22;11349;53.412;-1.328;2022-12-29T17:55:21;10.20;99.90
22364;DHT22;11349;53.412;-1.328;2022-12-29T17:57:47;9.50;99.90
22364;DHT22;11349;53.412;-1.328;2022-12-29T18:00:19;9.40;99.90
22364;DHT22;11349;53.412;-1.328;2022-12-29T18:02:46;9.20;99.90
22364;DHT22;11349;53.412;-1.328;2022-12-29T18:05:21;9.80;99.90
22364;DHT22;11349;53.412;-1.328;2022-12-29T18:07:51;9.60;99.90
22364;DHT22;11349;53.412;-1.328;2022-12-29T18:10:17;9.30;99.90
22364;DHT22;11349;53.412;-1.328;2022-12-29T18:12:45;9.40;99.90